createdAt,value
2019-03-18T00:00:32.282Z,97627.12
2019-03-18T00:01:41.175Z,97645.77
2019-03-18T00:02:49.562Z,97637.39
2019-03-18T00:03:57.982Z,97643.36
2019-03-18T00:05:06.793Z,97648.69
2019-03-18T00:06:16.270Z,97651.02
2019-03-18T00:07:24.430Z,97637.64
2019-03-18T00:08:32.629Z,97670.94
2019-03-18T00:09:41.265Z,97675.73
2019-03-18T00:10:49.710Z,97685.89
2019-03-18T00:11:58.142Z,97685.89
2019-03-18T00:13:06.496Z,97673.91
2019-03-18T00:14:14.729Z,97683.39
2019-03-18T00:15:23.433Z,97666.88
2019-03-18T00:16:31.655Z,97684.19
2019-03-18T00:17:40.032Z,97686.02
2019-03-18T00:18:48.557Z,97680.53
2019-03-18T00:19:56.613Z,97690.34
2019-03-18T00:21:06.211Z,97686.16
2019-03-18T00:22:14.371Z,97678.66
2019-03-18T00:23:22.845Z,97688.77
2019-03-18T00:24:31.139Z,97694.42
2019-03-18T00:25:39.331Z,97697.05
2019-03-18T00:26:48.292Z,97701.05
2019-03-18T00:27:56.312Z,97697.33
2019-03-18T00:29:04.521Z,97688.02
2019-03-18T00:30:20.102Z,97699.00
2019-03-18T00:31:28.614Z,97704.98
2019-03-18T00:32:36.937Z,97701.66
2019-03-18T00:33:45.124Z,97710.92
2019-03-18T00:34:53.361Z,97707.92
2019-03-18T00:36:01.759Z,97713.54
2019-03-18T00:37:09.901Z,97718.86
2019-03-18T00:38:18.202Z,97704.23
2019-03-18T00:39:26.660Z,97727.19
2019-03-18T00:40:34.921Z,97718.42
2019-03-18T00:41:43.241Z,97720.09
2019-03-18T00:42:51.496Z,97724.45
2019-03-18T00:43:59.683Z,97740.42
2019-03-18T00:45:14.587Z,97743.30
2019-03-18T00:46:19.067Z,97758.80
2019-03-18T00:47:26.987Z,97762.61
2019-03-18T00:48:35.139Z,97767.75
2019-03-18T00:49:43.286Z,97779.73
2019-03-18T00:50:51.196Z,97773.75
2019-03-18T00:51:59.445Z,97771.11
2019-03-18T00:53:07.441Z,97785.45
2019-03-18T00:54:15.482Z,97790.62
2019-03-18T00:55:23.788Z,97799.53
2019-03-18T00:56:31.789Z,97803.03
2019-03-18T00:57:39.939Z,97819.36
2019-03-18T00:58:47.912Z,97826.65
2019-03-18T00:59:55.824Z,97834.26
2019-03-18T01:01:03.968Z,97847.57
2019-03-18T01:02:12.103Z,97851.80
2019-03-18T01:03:20.049Z,97859.63
2019-03-18T01:04:28.167Z,97866.80
2019-03-18T01:05:36.601Z,97872.42
2019-03-18T01:06:44.523Z,97884.98
2019-03-18T01:07:52.687Z,97880.23
2019-03-18T01:09:01.194Z,97884.30
2019-03-18T01:10:15.568Z,97892.68
2019-03-18T01:11:23.913Z,97889.06
2019-03-18T01:12:32.181Z,97893.77
2019-03-18T01:13:40.634Z,97901.58
2019-03-18T01:14:48.898Z,97903.75
2019-03-18T01:15:56.860Z,97901.32
2019-03-18T01:17:04.810Z,97912.58
2019-03-18T01:18:13.136Z,97908.53
2019-03-18T01:19:21.079Z,97916.06
2019-03-18T01:20:29.335Z,97909.98
2019-03-18T01:21:37.367Z,97915.00
2019-03-18T01:22:45.906Z,97921.20
2019-03-18T01:23:53.981Z,97916.47
2019-03-18T01:25:02.430Z,97918.66
2019-03-18T01:26:10.346Z,97919.30
2019-03-18T01:27:18.219Z,97927.54
2019-03-18T01:28:26.477Z,97936.11
2019-03-18T01:29:34.406Z,97931.59
2019-03-18T01:30:42.510Z,97938.62
2019-03-18T01:31:50.656Z,97936.52
2019-03-18T01:32:58.987Z,97942.52
2019-03-18T01:34:07.162Z,97953.02
2019-03-18T01:35:15.304Z,97947.91
2019-03-18T01:36:23.556Z,97957.63
2019-03-18T01:37:31.997Z,97956.56
2019-03-18T01:38:40.039Z,97958.67
2019-03-18T01:39:48.203Z,97975.00
2019-03-18T01:40:56.349Z,97974.88
2019-03-18T01:42:04.602Z,97975.58
2019-03-18T01:43:12.888Z,97970.27
2019-03-18T01:44:20.822Z,97978.38
2019-03-18T01:45:40.151Z,97988.84
2019-03-18T01:46:38.925Z,97995.28
2019-03-18T01:47:47.006Z,97999.47
2019-03-18T01:48:54.942Z,97996.17
2019-03-18T01:50:02.968Z,97994.94
2019-03-18T01:51:11.120Z,97998.43
2019-03-18T01:52:19.405Z,98004.37
2019-03-18T01:53:27.485Z,97998.02
2019-03-18T01:54:35.413Z,97997.50
2019-03-18T01:55:43.483Z,98005.08
2019-03-18T01:56:51.392Z,98003.19
2019-03-18T01:57:59.451Z,98013.02
2019-03-18T01:59:07.516Z,98018.19
2019-03-18T02:00:18.575Z,98013.69
2019-03-18T02:01:26.565Z,98009.39
2019-03-18T02:02:34.641Z,98012.53
2019-03-18T02:03:42.582Z,98021.05
2019-03-18T02:04:50.832Z,98026.98
2019-03-18T02:05:58.913Z,98024.30
2019-03-18T02:07:06.898Z,98033.30
2019-03-18T02:08:15.209Z,98033.38
2019-03-18T02:09:23.459Z,98030.89
2019-03-18T02:10:31.459Z,98029.43
2019-03-18T02:11:39.498Z,98024.09
2019-03-18T02:12:47.641Z,98027.16
2019-03-18T02:13:55.768Z,98028.23
2019-03-18T02:15:03.893Z,98028.94
2019-03-18T02:16:12.193Z,98033.06
2019-03-18T02:17:20.134Z,98030.38
2019-03-18T02:18:28.472Z,98035.25
2019-03-18T02:19:36.492Z,98035.42
2019-03-18T02:20:44.586Z,98036.22
2019-03-18T02:21:52.570Z,98046.48
2019-03-18T02:23:00.805Z,98054.52
2019-03-18T02:24:09.298Z,98055.63
2019-03-18T02:25:17.478Z,98055.59
2019-03-18T02:26:25.753Z,98060.76
2019-03-18T02:27:33.829Z,98059.22
2019-03-18T02:28:41.947Z,98061.77
2019-03-18T02:29:49.737Z,98055.24
2019-03-18T02:30:57.661Z,98059.64
2019-03-18T02:32:05.972Z,98062.25
2019-03-18T02:33:13.930Z,98059.57
2019-03-18T02:34:22.178Z,98062.05
2019-03-18T02:35:30.449Z,98066.02
2019-03-18T02:36:38.593Z,98075.64
2019-03-18T02:37:46.514Z,98073.31
2019-03-18T02:38:54.503Z,98078.80
2019-03-18T02:40:02.655Z,98082.02
2019-03-18T02:41:10.734Z,98087.57
2019-03-18T02:42:18.957Z,98091.84
2019-03-18T02:43:27.380Z,98085.34
2019-03-18T02:44:35.453Z,98081.09
2019-03-18T02:45:43.281Z,98088.16
2019-03-18T02:46:51.568Z,98090.50
2019-03-18T02:47:59.777Z,98099.91
2019-03-18T02:49:07.965Z,98106.66
2019-03-18T02:50:16.384Z,98103.80
2019-03-18T02:51:24.780Z,98105.11
2019-03-18T02:52:32.872Z,98112.47
2019-03-18T02:53:40.953Z,98112.47
2019-03-18T02:54:49.150Z,98115.47
2019-03-18T02:55:57.192Z,98121.95
2019-03-18T02:57:05.116Z,98121.24
2019-03-18T02:58:13.346Z,98118.92
2019-03-18T02:59:21.733Z,98115.56
2019-03-18T03:00:29.806Z,98111.25
2019-03-18T03:01:37.718Z,98116.53
2019-03-18T03:02:45.930Z,98118.22
2019-03-18T03:03:53.724Z,98123.25
2019-03-18T03:05:01.708Z,98129.64
2019-03-18T03:06:09.827Z,98135.90
2019-03-18T03:07:17.872Z,98137.09
2019-03-18T03:08:26.154Z,98145.26
2019-03-18T03:09:34.221Z,98140.31
2019-03-18T03:10:42.304Z,98146.58
2019-03-18T03:11:50.518Z,98150.52
2019-03-18T03:12:58.694Z,98150.52
2019-03-18T03:14:06.740Z,98153.45
2019-03-18T03:15:15.723Z,98159.45
2019-03-18T03:16:27.164Z,98153.94
2019-03-18T03:17:33.248Z,98151.52
2019-03-18T03:18:41.158Z,98151.62
2019-03-18T03:19:49.370Z,98158.84
2019-03-18T03:20:57.449Z,98162.11
2019-03-18T03:22:05.373Z,98162.56
2019-03-18T03:23:13.362Z,98162.11
2019-03-18T03:24:21.859Z,98169.31
2019-03-18T03:25:30.020Z,98178.12
2019-03-18T03:26:38.044Z,98183.77
2019-03-18T03:27:46.229Z,98174.98
2019-03-18T03:28:54.815Z,98189.19
2019-03-18T03:30:02.667Z,98183.53
2019-03-18T03:31:10.696Z,98184.11
2019-03-18T03:32:18.718Z,98180.50
2019-03-18T03:33:26.819Z,98183.16
2019-03-18T03:34:34.960Z,98179.92
2019-03-18T03:35:42.882Z,98182.57
2019-03-18T03:36:51.397Z,98184.95
2019-03-18T03:38:00.015Z,98185.33
2019-03-18T03:39:08.657Z,98183.02
2019-03-18T03:40:16.754Z,98185.06
2019-03-18T03:41:24.553Z,98180.89
2019-03-18T03:42:33.197Z,98181.10
2019-03-18T03:43:42.011Z,98185.69
2019-03-18T03:44:50.369Z,98189.89
2019-03-18T03:45:58.487Z,98187.37
2019-03-18T03:47:06.533Z,98192.89
2019-03-18T03:48:14.659Z,98190.12
2019-03-18T03:49:22.701Z,98192.66
2019-03-18T03:50:30.609Z,98200.36
2019-03-18T03:51:38.914Z,98195.42
2019-03-18T03:52:47.162Z,98194.16
2019-03-18T03:53:55.457Z,98196.94
2019-03-18T03:55:03.948Z,98199.12
2019-03-18T03:56:12.069Z,98199.09
2019-03-18T03:57:20.257Z,98204.55
2019-03-18T03:58:28.160Z,98215.58
2019-03-18T03:59:37.157Z,98214.11
2019-03-18T04:00:45.433Z,98212.24
2019-03-18T04:01:53.734Z,98215.09
2019-03-18T04:03:01.723Z,98218.22
2019-03-18T04:04:09.945Z,98216.83
2019-03-18T04:05:18.126Z,98223.75
2019-03-18T04:06:26.431Z,98221.95
2019-03-18T04:07:34.529Z,98222.55
2019-03-18T04:08:43.673Z,98220.78
2019-03-18T04:09:52.034Z,98223.33
2019-03-18T04:11:00.365Z,98223.00
2019-03-18T04:12:08.311Z,98219.25
2019-03-18T04:13:16.413Z,98229.70
2019-03-18T04:14:24.619Z,98228.16
2019-03-18T04:15:32.732Z,98226.42
2019-03-18T04:16:43.981Z,98225.43
2019-03-18T04:17:50.775Z,98229.08
2019-03-18T04:18:58.933Z,98225.23
2019-03-18T04:20:11.492Z,98220.52
2019-03-18T04:21:19.813Z,98228.23
2019-03-18T04:22:28.092Z,98228.08
2019-03-18T04:23:36.715Z,98227.13
2019-03-18T04:24:44.801Z,98232.28
2019-03-18T04:25:53.000Z,98229.77
2019-03-18T04:27:01.201Z,98234.00
2019-03-18T04:28:09.299Z,98237.03
2019-03-18T04:29:17.720Z,98238.12
2019-03-18T04:30:26.009Z,98241.08
2019-03-18T04:31:33.994Z,98236.11
2019-03-18T04:32:42.194Z,98236.15
2019-03-18T04:33:50.391Z,98241.04
2019-03-18T04:34:58.466Z,98238.20
2019-03-18T04:36:06.382Z,98243.44
2019-03-18T04:37:14.479Z,98234.36
2019-03-18T04:38:22.886Z,98235.88
2019-03-18T04:39:30.930Z,98235.20
2019-03-18T04:40:39.614Z,98236.20
2019-03-18T04:41:47.581Z,98232.64
2019-03-18T04:42:55.810Z,98235.68
2019-03-18T04:44:03.969Z,98238.44
2019-03-18T04:45:12.476Z,98236.23
2019-03-18T04:46:20.731Z,98237.69
2019-03-18T04:47:28.757Z,98239.56
2019-03-18T04:48:36.930Z,98237.56
2019-03-18T04:49:45.270Z,98237.44
2019-03-18T04:50:53.381Z,98240.04
2019-03-18T04:52:01.474Z,98240.67
2019-03-18T04:53:09.498Z,98237.52
2019-03-18T04:54:17.710Z,98240.67
2019-03-18T04:55:25.818Z,98238.11
2019-03-18T04:56:33.756Z,98241.80
2019-03-18T04:57:41.984Z,98244.35
2019-03-18T04:58:50.079Z,98251.31
2019-03-18T04:59:58.203Z,98249.88
2019-03-18T05:01:06.272Z,98253.59
2019-03-18T05:02:16.628Z,98250.64
2019-03-18T05:03:24.490Z,98252.09
2019-03-18T05:04:32.552Z,98252.77
2019-03-18T05:05:41.113Z,98257.09
2019-03-18T05:06:49.194Z,98260.20
2019-03-18T05:07:57.276Z,98263.00
2019-03-18T05:09:06.763Z,98265.37
2019-03-18T05:10:14.773Z,98268.17
2019-03-18T05:11:22.966Z,98273.00
2019-03-18T05:12:32.863Z,98275.15
2019-03-18T05:13:41.791Z,98284.70
2019-03-18T05:14:50.059Z,98283.63
2019-03-18T05:15:58.039Z,98285.13
2019-03-18T05:17:06.242Z,98284.72
2019-03-18T05:18:14.217Z,98294.02
2019-03-18T05:19:22.263Z,98290.00
2019-03-18T05:20:30.494Z,98294.96
2019-03-18T05:21:38.702Z,98295.58
2019-03-18T05:22:47.060Z,98301.37
2019-03-18T05:23:55.068Z,98298.22
2019-03-18T05:25:03.052Z,98302.69
2019-03-18T05:26:11.103Z,98296.77
2019-03-18T05:27:19.186Z,98297.60
2019-03-18T05:28:27.074Z,98291.73
2019-03-18T05:29:35.090Z,98296.04
2019-03-18T05:30:43.745Z,98300.67
2019-03-18T05:31:51.918Z,98294.06
2019-03-18T05:33:00.076Z,98305.21
2019-03-18T05:34:08.141Z,98304.27
2019-03-18T05:35:16.533Z,98306.73
2019-03-18T05:36:24.605Z,98308.16
2019-03-18T05:37:32.528Z,98301.32
2019-03-18T05:38:40.799Z,98301.44
2019-03-18T05:39:49.032Z,98302.89
2019-03-18T05:40:56.939Z,98300.59
2019-03-18T05:42:04.968Z,98299.58
2019-03-18T05:43:13.427Z,98301.73
2019-03-18T05:44:21.710Z,98304.02
2019-03-18T05:45:29.951Z,98304.91
2019-03-18T05:46:37.932Z,98311.81
2019-03-18T05:47:46.167Z,98306.96
2019-03-18T05:48:54.154Z,98308.87
2019-03-18T05:50:02.195Z,98316.30
2019-03-18T05:51:10.408Z,98315.66
2019-03-18T05:52:18.243Z,98321.70
2019-03-18T05:53:26.304Z,98327.11
2019-03-18T05:54:34.141Z,98330.66
2019-03-18T05:55:42.399Z,98334.72
2019-03-18T05:56:50.405Z,98332.67
2019-03-18T05:57:58.469Z,98337.52
2019-03-18T05:59:06.732Z,98335.92
2019-03-18T06:00:16.039Z,98345.20
2019-03-18T06:01:24.415Z,98340.22
2019-03-18T06:02:32.923Z,98344.49
2019-03-18T06:03:41.296Z,98341.09
2019-03-18T06:04:49.541Z,98343.66
2019-03-18T06:05:57.794Z,98350.02
2019-03-18T06:07:06.258Z,98349.28
2019-03-18T06:08:14.780Z,98347.44
2019-03-18T06:09:22.849Z,98351.51
2019-03-18T06:10:31.514Z,98350.55
2019-03-18T06:11:39.358Z,98353.86
2019-03-18T06:12:47.563Z,98352.23
2019-03-18T06:13:56.655Z,98346.96
2019-03-18T06:15:07.143Z,98349.46
2019-03-18T06:16:15.568Z,98349.23
2019-03-18T06:17:23.902Z,98350.49
2019-03-18T06:18:31.987Z,98352.98
2019-03-18T06:19:40.448Z,98354.14
2019-03-18T06:20:48.509Z,98343.20
2019-03-18T06:21:57.014Z,98353.39
2019-03-18T06:23:05.480Z,98348.70
2019-03-18T06:24:13.869Z,98347.08
2019-03-18T06:25:21.775Z,98353.45
2019-03-18T06:26:30.629Z,98358.67
2019-03-18T06:27:39.423Z,98360.36
2019-03-18T06:28:47.786Z,98358.00
2019-03-18T06:29:56.044Z,98359.45
2019-03-18T06:31:04.518Z,98362.05
2019-03-18T06:32:12.849Z,98363.95
2019-03-18T06:33:21.151Z,98370.55
2019-03-18T06:34:29.597Z,98377.04
2019-03-18T06:35:37.889Z,98379.80
2019-03-18T06:36:46.326Z,98371.34
2019-03-18T06:37:54.489Z,98375.11
2019-03-18T06:39:02.994Z,98377.95
2019-03-18T06:40:16.224Z,98377.00
2019-03-18T06:41:24.546Z,98379.70
2019-03-18T06:42:32.651Z,98374.79
2019-03-18T06:43:41.094Z,98377.37
2019-03-18T06:44:49.394Z,98371.34
2019-03-18T06:45:57.893Z,98373.67
2019-03-18T06:47:06.345Z,98376.08
2019-03-18T06:48:15.221Z,98373.67
2019-03-18T06:49:23.252Z,98377.57
2019-03-18T06:50:31.776Z,98373.91
2019-03-18T06:51:40.401Z,98376.19
2019-03-18T06:52:48.840Z,98368.45
2019-03-18T06:53:57.061Z,98380.52
2019-03-18T06:55:06.792Z,98374.33
2019-03-18T06:56:15.193Z,98368.14
2019-03-18T06:57:23.378Z,98369.52
2019-03-18T06:58:31.776Z,98368.32
2019-03-18T06:59:40.031Z,98371.92
2019-03-18T07:00:48.276Z,98364.91
2019-03-18T07:01:56.605Z,98368.45
2019-03-18T07:03:05.552Z,98374.80
2019-03-18T07:04:14.178Z,98369.55
2019-03-18T07:05:22.553Z,98377.45
2019-03-18T07:06:31.283Z,98372.59
2019-03-18T07:07:39.486Z,98372.53
2019-03-18T07:08:49.585Z,98370.48
2019-03-18T07:09:57.846Z,98367.48
2019-03-18T07:11:06.437Z,98375.33
2019-03-18T07:12:14.692Z,98379.89
2019-03-18T07:13:23.053Z,98379.68
2019-03-18T07:14:31.810Z,98375.17
2019-03-18T07:15:40.111Z,98376.77
2019-03-18T07:16:48.727Z,98381.22
2019-03-18T07:17:57.475Z,98374.14
2019-03-18T07:19:05.807Z,98373.87
2019-03-18T07:20:15.567Z,98372.38
2019-03-18T07:21:23.885Z,98367.94
2019-03-18T07:22:32.227Z,98371.82
2019-03-18T07:23:40.333Z,98374.23
2019-03-18T07:24:48.480Z,98377.12
2019-03-18T07:25:56.932Z,98366.53
2019-03-18T07:27:05.657Z,98379.03
2019-03-18T07:28:14.061Z,98377.51
2019-03-18T07:29:25.115Z,98385.87
2019-03-18T07:30:33.410Z,98393.45
2019-03-18T07:31:41.462Z,98386.51
2019-03-18T07:32:50.075Z,98383.91
2019-03-18T07:33:59.872Z,98386.28
2019-03-18T07:35:08.578Z,98385.44
2019-03-18T07:36:16.667Z,98386.67
2019-03-18T07:37:24.761Z,98388.36
2019-03-18T07:38:33.250Z,98380.38
2019-03-18T07:39:41.403Z,98379.30
2019-03-18T07:40:49.749Z,98376.90
2019-03-18T07:41:58.096Z,98371.41
2019-03-18T07:43:06.476Z,98369.50
2019-03-18T07:44:15.358Z,98357.97
2019-03-18T07:45:23.881Z,98358.53
2019-03-18T07:46:32.542Z,98349.56
2019-03-18T07:47:41.232Z,98342.59
2019-03-18T07:48:49.603Z,98345.39
2019-03-18T07:49:57.968Z,98348.52
2019-03-18T07:51:06.551Z,98359.61
2019-03-18T07:52:14.883Z,98365.86
2019-03-18T07:53:23.371Z,98376.86
2019-03-18T07:54:33.187Z,98387.28
2019-03-18T07:55:41.481Z,98385.57
2019-03-18T07:56:49.907Z,98388.70
2019-03-18T07:57:58.272Z,98387.73
2019-03-18T07:59:06.490Z,98394.42
2019-03-18T08:00:16.248Z,98398.51
2019-03-18T08:01:24.290Z,98399.06
2019-03-18T08:02:32.666Z,98400.66
2019-03-18T08:03:40.624Z,98392.96
2019-03-18T08:04:48.862Z,98387.08
2019-03-18T08:05:56.651Z,98392.89
2019-03-18T08:07:05.082Z,98393.73
2019-03-18T08:08:13.314Z,98393.29
2019-03-18T08:09:21.550Z,98400.74
2019-03-18T08:10:29.883Z,98413.27
2019-03-18T08:11:38.716Z,98415.44
2019-03-18T08:12:47.380Z,98410.02
2019-03-18T08:13:56.197Z,98407.50
2019-03-18T08:15:06.659Z,98408.10
2019-03-18T08:16:15.061Z,98410.06
2019-03-18T08:17:23.649Z,98418.84
2019-03-18T08:18:42.770Z,98426.05
2019-03-18T08:19:42.157Z,98428.93
2019-03-18T08:20:50.506Z,98425.16
2019-03-18T08:21:59.115Z,98419.44
2019-03-18T08:23:07.140Z,98427.38
2019-03-18T08:24:15.458Z,98426.41
2019-03-18T08:25:23.615Z,98426.94
2019-03-18T08:26:31.806Z,98430.66
2019-03-18T08:27:40.412Z,98414.44
2019-03-18T08:28:49.291Z,98428.30
2019-03-18T08:29:58.052Z,98431.38
2019-03-18T08:31:05.944Z,98438.36
2019-03-18T08:32:14.139Z,98433.30
2019-03-18T08:33:22.418Z,98436.27
2019-03-18T08:34:30.733Z,98442.64
2019-03-18T08:35:39.242Z,98444.08
2019-03-18T08:36:47.348Z,98444.67
2019-03-18T08:37:56.400Z,98451.52
2019-03-18T08:39:06.092Z,98459.98
2019-03-18T08:40:14.296Z,98455.48
2019-03-18T08:41:22.484Z,98451.69
2019-03-18T08:42:30.792Z,98443.64
2019-03-18T08:43:38.900Z,98439.84
2019-03-18T08:44:46.905Z,98445.38
2019-03-18T08:45:55.494Z,98439.00
2019-03-18T08:47:03.804Z,98442.05
2019-03-18T08:48:11.897Z,98446.65
2019-03-18T08:49:19.918Z,98452.94
2019-03-18T08:50:28.032Z,98456.95
2019-03-18T08:51:36.289Z,98456.59
2019-03-18T08:52:44.284Z,98457.35
2019-03-18T08:53:53.409Z,98454.55
2019-03-18T08:55:01.527Z,98456.44
2019-03-18T08:56:09.430Z,98455.59
2019-03-18T08:57:17.895Z,98454.19
2019-03-18T08:58:25.940Z,98465.65
2019-03-18T08:59:34.199Z,98454.71
2019-03-18T09:00:42.297Z,98447.90
2019-03-18T09:01:50.545Z,98448.97
2019-03-18T09:02:58.667Z,98455.51
2019-03-18T09:04:06.995Z,98454.78
2019-03-18T09:05:15.491Z,98451.18
2019-03-18T09:06:23.529Z,98447.09
2019-03-18T09:07:31.684Z,98440.16
2019-03-18T09:08:39.884Z,98444.66
2019-03-18T09:09:47.971Z,98438.88
2019-03-18T09:10:56.897Z,98438.36
2019-03-18T09:12:05.315Z,98434.44
2019-03-18T09:13:13.314Z,98438.56
2019-03-18T09:14:21.386Z,98438.20
2019-03-18T09:15:29.417Z,98446.09
2019-03-18T09:16:37.713Z,98451.63
2019-03-18T09:17:45.752Z,98460.67
2019-03-18T09:18:54.115Z,98456.99
2019-03-18T09:20:02.206Z,98450.86
2019-03-18T09:21:10.204Z,98455.27
2019-03-18T09:22:18.293Z,98455.75
2019-03-18T09:23:27.633Z,98448.06
2019-03-18T09:24:35.888Z,98448.55
2019-03-18T09:25:44.184Z,98443.53
2019-03-18T09:27:01.894Z,98448.90
2019-03-18T09:28:01.979Z,98450.95
2019-03-18T09:29:10.310Z,98454.02
2019-03-18T09:30:20.007Z,98446.34
2019-03-18T09:31:28.383Z,98444.09
2019-03-18T09:32:36.556Z,98441.81
2019-03-18T09:33:44.450Z,98441.25
2019-03-18T09:34:54.672Z,98440.80
2019-03-18T09:36:02.435Z,98434.23
2019-03-18T09:37:10.637Z,98439.34
2019-03-18T09:38:18.817Z,98450.08
2019-03-18T09:39:26.972Z,98456.66
2019-03-18T09:40:35.258Z,98467.81
2019-03-18T09:41:43.529Z,98462.36
2019-03-18T09:42:51.741Z,98464.44
2019-03-18T09:44:00.207Z,98460.40
2019-03-18T09:45:12.622Z,98462.24
2019-03-18T09:46:20.708Z,98470.74
2019-03-18T09:47:28.858Z,98469.50
2019-03-18T09:48:36.841Z,98471.58
2019-03-18T09:49:45.227Z,98474.42
2019-03-18T09:50:53.393Z,98476.83
2019-03-18T09:52:01.224Z,98488.73
2019-03-18T09:53:11.059Z,98482.88
2019-03-18T09:54:19.509Z,98486.73
2019-03-18T09:55:27.497Z,98484.20
2019-03-18T09:56:35.847Z,98498.04
2019-03-18T09:57:43.953Z,98487.70
2019-03-18T09:58:52.178Z,98482.33
2019-03-18T10:00:00.491Z,98491.82
2019-03-18T10:01:08.359Z,98498.20
2019-03-18T10:02:16.718Z,98487.85
2019-03-18T10:03:24.914Z,98493.14
2019-03-18T10:04:32.832Z,98487.38
2019-03-18T10:05:43.860Z,98492.30
2019-03-18T10:06:50.935Z,98487.38
2019-03-18T10:07:59.165Z,98487.85
2019-03-18T10:09:08.901Z,98489.81
2019-03-18T10:10:17.079Z,98483.20
2019-03-18T10:11:25.058Z,98498.64
2019-03-18T10:12:33.008Z,98505.61
2019-03-18T10:13:40.935Z,98504.16
2019-03-18T10:14:48.984Z,98500.80
2019-03-18T10:15:57.229Z,98506.94
2019-03-18T10:17:09.999Z,98506.94
2019-03-18T10:18:15.013Z,98507.78
2019-03-18T10:19:33.027Z,98506.16
2019-03-18T10:20:32.650Z,98514.66
2019-03-18T10:21:40.683Z,98509.53
2019-03-18T10:22:48.920Z,98510.62
2019-03-18T10:23:57.038Z,98506.72
2019-03-18T10:25:07.043Z,98503.35
2019-03-18T10:26:15.225Z,98503.62
2019-03-18T10:27:23.321Z,98497.86
2019-03-18T10:28:31.224Z,98490.85
2019-03-18T10:29:39.161Z,98490.30
2019-03-18T10:30:47.437Z,98493.27
2019-03-18T10:31:55.310Z,98494.19
2019-03-18T10:33:03.618Z,98490.25
2019-03-18T10:34:11.745Z,98486.64
2019-03-18T10:35:20.828Z,98491.70
2019-03-18T10:36:29.448Z,98494.94
2019-03-18T10:37:37.570Z,98493.02
2019-03-18T10:38:45.720Z,98499.25
2019-03-18T10:39:53.953Z,98495.39
2019-03-18T10:41:01.949Z,98489.19
2019-03-18T10:42:09.947Z,98494.88
2019-03-18T10:43:17.994Z,98497.52
2019-03-18T10:44:27.234Z,98488.39
2019-03-18T10:45:35.565Z,98492.62
2019-03-18T10:46:43.557Z,98489.59
2019-03-18T10:47:51.665Z,98496.94
2019-03-18T10:49:00.228Z,98487.14
2019-03-18T10:50:13.043Z,98493.14
2019-03-18T10:51:21.316Z,98493.98
2019-03-18T10:52:29.285Z,98498.36
2019-03-18T10:53:37.389Z,98496.89
2019-03-18T10:54:45.671Z,98499.16
2019-03-18T10:55:54.054Z,98507.10
2019-03-18T10:57:02.183Z,98496.14
2019-03-18T10:58:10.465Z,98497.35
2019-03-18T10:59:18.661Z,98493.38
2019-03-18T11:00:26.997Z,98485.92
2019-03-18T11:01:35.285Z,98482.88
2019-03-18T11:02:44.945Z,98484.48
2019-03-18T11:03:52.996Z,98490.48
2019-03-18T11:05:01.099Z,98488.08
2019-03-18T11:06:09.595Z,98493.47
2019-03-18T11:07:17.763Z,98497.47
2019-03-18T11:08:25.891Z,98489.19
2019-03-18T11:09:33.998Z,98486.64
2019-03-18T11:10:41.844Z,98486.97
2019-03-18T11:11:49.938Z,98483.15
2019-03-18T11:12:57.874Z,98486.55
2019-03-18T11:14:06.012Z,98493.42
2019-03-18T11:15:17.830Z,98495.36
2019-03-18T11:16:26.060Z,98503.56
2019-03-18T11:17:34.119Z,98497.88
2019-03-18T11:18:42.464Z,98500.17
2019-03-18T11:19:58.283Z,98497.50
2019-03-18T11:21:00.695Z,98498.46
2019-03-18T11:22:08.804Z,98491.94
2019-03-18T11:23:16.744Z,98490.16
2019-03-18T11:24:24.667Z,98478.81
2019-03-18T11:25:32.952Z,98488.70
2019-03-18T11:26:40.836Z,98493.76
2019-03-18T11:27:48.986Z,98486.80
2019-03-18T11:28:56.962Z,98494.78
2019-03-18T11:30:07.248Z,98496.96
2019-03-18T11:31:15.354Z,98493.33
2019-03-18T11:32:23.435Z,98487.77
2019-03-18T11:33:31.446Z,98487.87
2019-03-18T11:34:39.453Z,98482.79
2019-03-18T11:35:47.790Z,98487.84
2019-03-18T11:36:55.810Z,98489.89
2019-03-18T11:38:03.985Z,98490.84
2019-03-18T11:39:12.306Z,98495.28
2019-03-18T11:40:23.444Z,98488.42
2019-03-18T11:41:31.413Z,98494.88
2019-03-18T11:42:39.658Z,98493.17
2019-03-18T11:43:48.053Z,98485.98
2019-03-18T11:44:56.246Z,98488.78
2019-03-18T11:46:04.292Z,98503.30
2019-03-18T11:47:12.376Z,98503.42
2019-03-18T11:48:20.431Z,98505.47
2019-03-18T11:49:39.050Z,98496.72
2019-03-18T11:50:41.271Z,98498.28
2019-03-18T11:51:48.111Z,98494.88
2019-03-18T11:52:56.145Z,98499.09
2019-03-18T11:54:04.541Z,98497.66
2019-03-18T11:55:21.969Z,98497.74
2019-03-18T11:56:30.174Z,98503.67
2019-03-18T11:57:38.439Z,98495.28
2019-03-18T11:58:46.464Z,98503.12
2019-03-18T11:59:54.461Z,98499.73
2019-03-18T12:01:02.733Z,98503.19
2019-03-18T12:02:10.929Z,98506.80
2019-03-18T12:03:18.851Z,98505.11
2019-03-18T12:04:26.734Z,98505.38
2019-03-18T12:05:34.724Z,98496.12
2019-03-18T12:06:43.111Z,98496.12
2019-03-18T12:07:51.132Z,98497.45
2019-03-18T12:08:59.307Z,98498.50
2019-03-18T12:10:14.621Z,98501.20
2019-03-18T12:11:22.562Z,98503.88
2019-03-18T12:12:30.652Z,98499.90
2019-03-18T12:13:39.093Z,98500.48
2019-03-18T12:14:47.101Z,98503.25
2019-03-18T12:15:55.018Z,98508.16
2019-03-18T12:17:03.031Z,98504.56
2019-03-18T12:18:11.127Z,98506.62
2019-03-18T12:19:19.327Z,98508.54
2019-03-18T12:20:27.570Z,98518.65
2019-03-18T12:21:35.564Z,98502.41
2019-03-18T12:22:44.135Z,98507.36
2019-03-18T12:23:52.533Z,98508.23
2019-03-18T12:25:00.763Z,98502.84
2019-03-18T12:26:08.976Z,98503.58
2019-03-18T12:27:17.075Z,98510.11
2019-03-18T12:28:26.231Z,98502.79
2019-03-18T12:29:34.469Z,98497.49
2019-03-18T12:30:43.122Z,98495.80
2019-03-18T12:31:51.073Z,98497.97
2019-03-18T12:32:58.889Z,98493.89
2019-03-18T12:34:13.442Z,98490.14
2019-03-18T12:35:24.177Z,98497.72
2019-03-18T12:36:32.359Z,98492.08
2019-03-18T12:37:40.542Z,98490.87
2019-03-18T12:38:48.664Z,98489.91
2019-03-18T12:39:56.874Z,98477.38
2019-03-18T12:41:05.248Z,98485.08
2019-03-18T12:42:13.931Z,98480.14
2019-03-18T12:43:21.876Z,98490.39
2019-03-18T12:44:30.174Z,98487.61
2019-03-18T12:45:38.263Z,98489.89
2019-03-18T12:46:46.262Z,98494.72
2019-03-18T12:47:54.381Z,98496.88
2019-03-18T12:49:02.826Z,98493.41
2019-03-18T12:50:17.307Z,98496.88
2019-03-18T12:51:25.433Z,98488.19
2019-03-18T12:52:33.600Z,98493.95
2019-03-18T12:53:41.902Z,98498.05
2019-03-18T12:54:49.919Z,98494.09
2019-03-18T12:55:57.830Z,98497.20
2019-03-18T12:57:06.084Z,98500.11
2019-03-18T12:58:14.145Z,98497.09
2019-03-18T12:59:22.404Z,98487.68
2019-03-18T13:00:39.152Z,98480.84
2019-03-18T13:01:47.379Z,98492.66
2019-03-18T13:02:55.598Z,98490.00
2019-03-18T13:04:04.329Z,98489.30
2019-03-18T13:05:12.798Z,98489.77
2019-03-18T13:06:20.840Z,98490.51
2019-03-18T13:07:28.789Z,98485.80
2019-03-18T13:08:36.710Z,98493.91
2019-03-18T13:09:44.833Z,98507.00
2019-03-18T13:10:53.336Z,98498.58
2019-03-18T13:12:01.323Z,98502.68
2019-03-18T13:13:09.371Z,98490.97
2019-03-18T13:14:17.291Z,98496.42
2019-03-18T13:15:25.619Z,98497.98
2019-03-18T13:16:33.906Z,98485.09
2019-03-18T13:17:43.853Z,98487.62
2019-03-18T13:18:51.792Z,98486.78
2019-03-18T13:20:00.008Z,98496.30
2019-03-18T13:21:08.565Z,98485.69
2019-03-18T13:22:16.551Z,98482.91
2019-03-18T13:23:24.873Z,98479.80